sensor_id;sensor_type;location;lat;lon;timestamp;temperature;humidity
32694;DHT22;19084;44.716;10.218;2022-12-29T00:02:14;9.00;99.90
32694;DHT22;19084;44.716;10.218;2022-12-29T00:04:48;9.00;99.90
32694;DHT22;19084;44.716;10.218;2022-12-29T00:07:21;9.00;99.90
32694;DHT22;19084;44.716;10.218;2022-12-29T00:09:54;9.00;99.90
32694;DHT22;19084;44.716;10.218;2022-12-29T00:12:26;9.00;99.90
32694;DHT22;19084;44.716;10.218;2022-12-29T00:15:18;9.00;99.90
32694;DHT22;19084;44.716;10.218;2022-12-29T00:18:07;9.00;99.90
32694;DHT22;19084;44.716;10.218;2022-12-29T00:20:39;9.60;99.90
32694;DHT22;19084;44.716;10.218;2022-12-29T00:23:26;8.90;99.90
32694;DHT22;19084;44.716;10.218;2022-12-29T00:26:15;8.90;99.90
32694;DHT22;19084;44.716;10.218;2022-12-29T00:29:04;8.90;99.90
32694;DHT22;19084;44.716;10.218;2022-12-29T00:31:53;8.80;99.90
32694;DHT22;19084;44.716;10.218;2022-12-29T00:34:41;8.90;99.90
32694;DHT22;19084;44.716;10.218;2022-12-29T00:37:29;8.90;99.90
32694;DHT22;19084;44.716;10.218;2022-12-29T00:40:17;8.90;99.90
32694;DHT22;19084;44.716;10.218;2022-12-29T00:43:05;8.90;99.90
32694;DHT22;19084;44.716;10.218;2022-12-29T00:45:52;9.00;99.90
32694;DHT22;19084;44.716;10.218;2022-12-29T00:48:25;9.00;99.90
32694;DHT22;19084;44.716;10.218;2022-12-29T00:51:12;8.90;99.90
32694;DHT22;19084;44.716;10.218;2022-12-29T00:53:45;8.90;99.90
32694;DHT22;19084;44.716;10.218;2022-12-29T00:56:17;9.00;99.90
32694;DHT22;19084;44.716;10.218;2022-12-29T00:58:49;9.00;99.90
32694;DHT22;19084;44.716;10.218;2022-12-29T01:01:22;9.00;99.90
32694;DHT22;19084;44.716;10.218;2022-12-29T01:03:54;9.00;99.90
32694;DHT22;19084;44.716;10.218;2022-12-29T01:06:35;9.00;99.90
32694;DHT22;19084;44.716;10.218;2022-12-29T01:09:08;9.00;99.90
32694;DHT22;19084;44.716;10.218;2022-12-29T01:11:57;9.00;99.90
32694;DHT22;19084;44.716;10.218;2022-12-29T01:14:30;9.00;99.90
32694;DHT22;19084;44.716;10.218;2022-12-29T01:17:03;9.00;99.90
32694;DHT22;19084;44.716;10.218;2022-12-29T01:19:37;9.00;99.90
32694;DHT22;19084;44.716;10.218;2022-12-29T01:22:09;9.00;99.90
32694;DHT22;19084;44.716;10.218;2022-12-29T01:24:42;9.00;99.90
32694;DHT22;19084;44.716;10.218;2022-12-29T01:27:17;9.00;99.90
32694;DHT22;19084;44.716;10.218;2022-12-29T01:29:49;9.00;99.90
32694;DHT22;19084;44.716;10.218;2022-12-29T01:32:22;9.00;99.90
32694;DHT22;19084;44.716;10.218;2022-12-29T01:34:55;9.00;99.90
32694;DHT22;19084;44.716;10.218;2022-12-29T01:37:27;9.00;99.90
32694;DHT22;19084;44.716;10.218;2022-12-29T01:40:00;9.00;99.90
32694;DHT22;19084;44.716;10.218;2022-12-29T01:42:32;9.00;99.90
32694;DHT22;19084;44.716;10.218;2022-12-29T01:45:08;9.00;99.90
32694;DHT22;19084;44.716;10.218;2022-12-29T01:47:42;9.00;99.90
32694;DHT22;19084;44.716;10.218;2022-12-29T01:50:21;9.00;99.90
32694;DHT22;19084;44.716;10.218;2022-12-29T01:55:45;9.00;99.90
32694;DHT22;19084;44.716;10.218;2022-12-29T01:58:21;9.00;99.90
32694;DHT22;19084;44.716;10.218;2022-12-29T02:00:54;9.00;99.90
32694;DHT22;19084;44.716;10.218;2022-12-29T02:03:27;8.90;99.90
32694;DHT22;19084;44.716;10.218;2022-12-29T02:06:05;8.90;99.90
32694;DHT22;19084;44.716;10.218;2022-12-29T02:08:42;8.90;99.90
32694;DHT22;19084;44.716;10.218;2022-12-29T02:11:15;8.90;99.90
32694;DHT22;19084;44.716;10.218;2022-12-29T02:13:48;8.90;99.90
32694;DHT22;19084;44.716;10.218;2022-12-29T02:21:44;8.80;99.90
32694;DHT22;19084;44.716;10.218;2022-12-29T02:32:03;8.80;99.90
32694;DHT22;19084;44.716;10.218;2022-12-29T02:34:48;8.90;99.90
32694;DHT22;19084;44.716;10.218;2022-12-29T02:37:27;8.90;99.90
32694;DHT22;19084;44.716;10.218;2022-12-29T02:45:24;8.80;99.90
32694;DHT22;19084;44.716;10.218;2022-12-29T02:50:56;8.80;99.90
32694;DHT22;19084;44.716;10.218;2022-12-29T02:53:32;8.90;99.90
32694;DHT22;19084;44.716;10.218;2022-12-29T02:56:23;8.90;99.90
32694;DHT22;19084;44.716;10.218;2022-12-29T02:58:56;8.90;99.90
32694;DHT22;19084;44.716;10.218;2022-12-29T03:12:14;8.90;99.90
32694;DHT22;19084;44.716;10.218;2022-12-29T03:18:01;8.90;99.90
32694;DHT22;19084;44.716;10.218;2022-12-29T03:20:41;8.90;99.90
32694;DHT22;19084;44.716;10.218;2022-12-29T03:23:16;8.90;99.90
32694;DHT22;19084;44.716;10.218;2022-12-29T03:25:53;8.90;99.90
32694;DHT22;19084;44.716;10.218;2022-12-29T03:28:28;8.90;99.90
32694;DHT22;19084;44.716;10.218;2022-12-29T03:31:02;8.90;99.90
32694;DHT22;19084;44.716;10.218;2022-12-29T03:33:35;8.90;99.90
32694;DHT22;19084;44.716;10.218;2022-12-29T03:36:10;8.80;99.90
32694;DHT22;19084;44.716;10.218;2022-12-29T03:38:45;8.80;99.90
32694;DHT22;19084;44.716;10.218;2022-12-29T03:41:27;8.80;99.90
32694;DHT22;19084;44.716;10.218;2022-12-29T03:44:05;8.80;99.90
32694;DHT22;19084;44.716;10.218;2022-12-29T03:46:38;8.80;99.90
32694;DHT22;19084;44.716;10.218;2022-12-29T03:49:11;8.80;99.90
32694;DHT22;19084;44.716;10.218;2022-12-29T03:51:44;8.80;99.90
32694;DHT22;19084;44.716;10.218;2022-12-29T03:54:17;8.80;99.90
32694;DHT22;19084;44.716;10.218;2022-12-29T03:56:49;8.80;99.90
32694;DHT22;19084;44.716;10.218;2022-12-29T03:59:31;8.80;99.90
32694;DHT22;19084;44.716;10.218;2022-12-29T04:02:05;8.80;99.90
32694;DHT22;19084;44.716;10.218;2022-12-29T04:04:39;8.80;99.90
32694;DHT22;19084;44.716;10.218;2022-12-29T04:07:11;8.80;99.90
32694;DHT22;19084;44.716;10.218;2022-12-29T04:09:45;8.80;99.90
32694;DHT22;19084;44.716;10.218;2022-12-29T04:12:24;8.80;99.90
32694;DHT22;19084;44.716;10.218;2022-12-29T04:14:56;8.80;99.90
32694;DHT22;19084;44.716;10.218;2022-12-29T04:17:29;8.80;99.90
32694;DHT22;19084;44.716;10.218;2022-12-29T04:20:01;8.80;99.90
32694;DHT22;19084;44.716;10.218;2022-12-29T04:22:49;8.80;99.90
32694;DHT22;19084;44.716;10.218;2022-12-29T04:25:22;8.80;99.90
32694;DHT22;19084;44.716;10.218;2022-12-29T04:27:55;8.80;99.90
32694;DHT22;19084;44.716;10.218;2022-12-29T04:30:43;8.70;99.90
32694;DHT22;19084;44.716;10.218;2022-12-29T04:33:21;8.70;99.90
32694;DHT22;19084;44.716;10.218;2022-12-29T04:35:54;8.70;99.90
32694;DHT22;19084;44.716;10.218;2022-12-29T04:38:28;8.80;99.90
32694;DHT22;19084;44.716;10.218;2022-12-29T04:41:02;8.70;99.90
32694;DHT22;19084;44.716;10.218;2022-12-29T04:43:35;8.70;99.90
32694;DHT22;19084;44.716;10.218;2022-12-29T04:46:22;8.70;99.90
32694;DHT22;19084;44.716;10.218;2022-12-29T04:49:00;8.70;99.90
32694;DHT22;19084;44.716;10.218;2022-12-29T04:51:56;8.70;99.90
32694;DHT22;19084;44.716;10.218;2022-12-29T04:54:31;8.70;99.90
32694;DHT22;19084;44.716;10.218;2022-12-29T04:57:18;8.70;99.90
32694;DHT22;19084;44.716;10.218;2022-12-29T04:59:55;8.70;99.90
32694;DHT22;19084;44.716;10.218;2022-12-29T05:02:28;8.70;99.90
32694;DHT22;19084;44.716;10.218;2022-12-29T05:05:01;8.70;99.90
32694;DHT22;19084;44.716;10.218;2022-12-29T05:07:35;8.70;99.90
32694;DHT22;19084;44.716;10.218;2022-12-29T05:10:08;8.70;99.90
32694;DHT22;19084;44.716;10.218;2022-12-29T05:12:40;8.70;99.90
32694;DHT22;19084;44.716;10.218;2022-12-29T05:15:13;8.80;99.90
32694;DHT22;19084;44.716;10.218;2022-12-29T05:17:47;8.80;99.90
32694;DHT22;19084;44.716;10.218;2022-12-29T05:20:19;8.80;99.90
32694;DHT22;19084;44.716;10.218;2022-12-29T05:22:52;8.70;99.90
32694;DHT22;19084;44.716;10.218;2022-12-29T05:25:24;8.70;99.90
32694;DHT22;19084;44.716;10.218;2022-12-29T05:28:08;8.70;99.90
32694;DHT22;19084;44.716;10.218;2022-12-29T05:30:48;8.70;99.90
32694;DHT22;19084;44.716;10.218;2022-12-29T05:33:22;8.70;99.90
32694;DHT22;19084;44.716;10.218;2022-12-29T05:35:56;8.70;99.90
32694;DHT22;19084;44.716;10.218;2022-12-29T05:38:28;8.70;99.90
32694;DHT22;19084;44.716;10.218;2022-12-29T05:41:01;8.70;99.90
32694;DHT22;19084;44.716;10.218;2022-12-29T05:43:41;8.80;99.90
32694;DHT22;19084;44.716;10.218;2022-12-29T05:46:22;8.80;99.90
32694;DHT22;19084;44.716;10.218;2022-12-29T05:49:10;8.80;99.90
32694;DHT22;19084;44.716;10.218;2022-12-29T05:51:58;8.80;99.90
32694;DHT22;19084;44.716;10.218;2022-12-29T05:54:32;8.70;99.90
32694;DHT22;19084;44.716;10.218;2022-12-29T05:57:06;8.70;99.90
32694;DHT22;19084;44.716;10.218;2022-12-29T05:59:39;8.70;99.90
32694;DHT22;19084;44.716;10.218;2022-12-29T06:02:11;8.70;99.90
32694;DHT22;19084;44.716;10.218;2022-12-29T06:04:46;8.70;99.90
32694;DHT22;19084;44.716;10.218;2022-12-29T06:07:20;8.80;99.90
32694;DHT22;19084;44.716;10.218;2022-12-29T06:09:52;8.80;99.90
32694;DHT22;19084;44.716;10.218;2022-12-29T06:12:25;8.80;99.90
32694;DHT22;19084;44.716;10.218;2022-12-29T06:14:59;8.70;99.90
32694;DHT22;19084;44.716;10.218;2022-12-29T06:17:32;8.70;99.90
32694;DHT22;19084;44.716;10.218;2022-12-29T06:20:05;8.80;99.90
32694;DHT22;19084;44.716;10.218;2022-12-29T06:22:38;8.80;99.90
32694;DHT22;19084;44.716;10.218;2022-12-29T06:25:11;8.70;99.90
32694;DHT22;19084;44.716;10.218;2022-12-29T06:27:47;8.80;99.90
32694;DHT22;19084;44.716;10.218;2022-12-29T06:30:19;8.80;99.90
32694;DHT22;19084;44.716;10.218;2022-12-29T06:32:52;8.80;99.90
32694;DHT22;19084;44.716;10.218;2022-12-29T06:35:27;8.80;99.90
32694;DHT22;19084;44.716;10.218;2022-12-29T06:38:00;8.80;99.90
32694;DHT22;19084;44.716;10.218;2022-12-29T06:40:32;8.70;99.90
32694;DHT22;19084;44.716;10.218;2022-12-29T06:43:16;8.70;99.90
32694;DHT22;19084;44.716;10.218;2022-12-29T06:46:04;8.70;99.90
32694;DHT22;19084;44.716;10.218;2022-12-29T06:48:37;8.70;99.90
32694;DHT22;19084;44.716;10.218;2022-12-29T06:51:09;8.70;99.90
32694;DHT22;19084;44.716;10.218;2022-12-29T06:53:42;8.70;99.90
32694;DHT22;19084;44.716;10.218;2022-12-29T06:56:14;8.70;99.90
32694;DHT22;19084;44.716;10.218;2022-12-29T06:58:47;8.80;99.90
32694;DHT22;19084;44.716;10.218;2022-12-29T07:01:19;9.00;99.90
32694;DHT22;19084;44.716;10.218;2022-12-29T07:03:52;8.80;99.90
32694;DHT22;19084;44.716;10.218;2022-12-29T07:06:24;8.80;99.90
32694;DHT22;19084;44.716;10.218;2022-12-29T07:08:59;8.80;99.90
32694;DHT22;19084;44.716;10.218;2022-12-29T07:11:31;8.80;99.90
32694;DHT22;19084;44.716;10.218;2022-12-29T07:14:04;8.80;99.90
32694;DHT22;19084;44.716;10.218;2022-12-29T07:16:36;8.80;99.90
32694;DHT22;19084;44.716;10.218;2022-12-29T07:19:09;8.80;99.90
32694;DHT22;19084;44.716;10.218;2022-12-29T07:21:41;8.80;99.90
32694;DHT22;19084;44.716;10.218;2022-12-29T07:24:16;8.80;99.90
32694;DHT22;19084;44.716;10.218;2022-12-29T07:26:49;8.80;99.90
32694;DHT22;19084;44.716;10.218;2022-12-29T07:29:21;8.90;99.90
32694;DHT22;19084;44.716;10.218;2022-12-29T07:31:53;8.90;99.90
32694;DHT22;19084;44.716;10.218;2022-12-29T07:34:26;8.90;99.90
32694;DHT22;19084;44.716;10.218;2022-12-29T07:36:59;8.90;99.90
32694;DHT22;19084;44.716;10.218;2022-12-29T07:39:31;8.90;99.90
32694;DHT22;19084;44.716;10.218;2022-12-29T07:42:03;8.90;99.90
32694;DHT22;19084;44.716;10.218;2022-12-29T07:44:45;8.90;99.90
32694;DHT22;19084;44.716;10.218;2022-12-29T07:47:23;8.90;99.90
32694;DHT22;19084;44.716;10.218;2022-12-29T07:49:55;8.90;99.90
32694;DHT22;19084;44.716;10.218;2022-12-29T07:52:28;8.90;99.90
32694;DHT22;19084;44.716;10.218;2022-12-29T07:55:00;9.00;99.90
32694;DHT22;19084;44.716;10.218;2022-12-29T07:57:33;9.00;99.90
32694;DHT22;19084;44.716;10.218;2022-12-29T08:00:06;9.00;99.90
32694;DHT22;19084;44.716;10.218;2022-12-29T08:02:42;9.00;99.90
32694;DHT22;19084;44.716;10.218;2022-12-29T08:05:15;9.00;99.90
32694;DHT22;19084;44.716;10.218;2022-12-29T08:07:47;9.00;99.90
32694;DHT22;19084;44.716;10.218;2022-12-29T08:10:20;9.00;99.90
32694;DHT22;19084;44.716;10.218;2022-12-29T08:12:52;9.00;99.90
32694;DHT22;19084;44.716;10.218;2022-12-29T08:15:25;9.00;99.90
32694;DHT22;19084;44.716;10.218;2022-12-29T08:18:03;9.00;99.90
32694;DHT22;19084;44.716;10.218;2022-12-29T08:20:36;9.00;99.90
32694;DHT22;19084;44.716;10.218;2022-12-29T08:23:08;9.10;99.90
32694;DHT22;19084;44.716;10.218;2022-12-29T08:25:41;9.10;99.90
32694;DHT22;19084;44.716;10.218;2022-12-29T08:28:13;9.00;99.90
32694;DHT22;19084;44.716;10.218;2022-12-29T08:30:46;9.00;99.90
32694;DHT22;19084;44.716;10.218;2022-12-29T08:33:18;9.00;99.90
32694;DHT22;19084;44.716;10.218;2022-12-29T08:35:51;9.00;99.90
32694;DHT22;19084;44.716;10.218;2022-12-29T08:38:23;9.00;99.90
32694;DHT22;19084;44.716;10.218;2022-12-29T08:40:56;9.00;99.90
32694;DHT22;19084;44.716;10.218;2022-12-29T08:43:28;9.00;99.90
32694;DHT22;19084;44.716;10.218;2022-12-29T08:46:01;9.10;99.90
32694;DHT22;19084;44.716;10.218;2022-12-29T08:48:34;9.10;99.90
32694;DHT22;19084;44.716;10.218;2022-12-29T08:51:06;9.10;99.90
32694;DHT22;19084;44.716;10.218;2022-12-29T08:53:39;9.10;99.90
32694;DHT22;19084;44.716;10.218;2022-12-29T08:56:12;9.10;99.90
32694;DHT22;19084;44.716;10.218;2022-12-29T08:58:52;9.10;99.90
32694;DHT22;19084;44.716;10.218;2022-12-29T09:01:26;9.10;99.90
32694;DHT22;19084;44.716;10.218;2022-12-29T09:03:59;9.10;99.90
32694;DHT22;19084;44.716;10.218;2022-12-29T09:06:49;9.10;99.90
32694;DHT22;19084;44.716;10.218;2022-12-29T09:09:21;9.10;99.90
32694;DHT22;19084;44.716;10.218;2022-12-29T09:11:54;9.10;99.90
32694;DHT22;19084;44.716;10.218;2022-12-29T09:14:27;9.10;99.90
32694;DHT22;19084;44.716;10.218;2022-12-29T09:16:59;9.10;99.90
32694;DHT22;19084;44.716;10.218;2022-12-29T09:19:47;9.10;99.90
32694;DHT22;19084;44.716;10.218;2022-12-29T09:22:20;9.10;99.90
32694;DHT22;19084;44.716;10.218;2022-12-29T09:24:52;9.10;99.90
32694;DHT22;19084;44.716;10.218;2022-12-29T09:27:27;9.10;99.90
32694;DHT22;19084;44.716;10.218;2022-12-29T09:29:59;9.10;99.90
32694;DHT22;19084;44.716;10.218;2022-12-29T09:32:32;9.10;99.90
32694;DHT22;19084;44.716;10.218;2022-12-29T09:35:08;9.20;99.90
32694;DHT22;19084;44.716;10.218;2022-12-29T09:37:41;9.20;99.90
32694;DHT22;19084;44.716;10.218;2022-12-29T09:43:10;9.10;99.90
32694;DHT22;19084;44.716;10.218;2022-12-29T09:45:45;9.10;99.90
32694;DHT22;19084;44.716;10.218;2022-12-29T09:48:21;9.10;99.90
32694;DHT22;19084;44.716;10.218;2022-12-29T09:50:55;9.10;99.90
32694;DHT22;19084;44.716;10.218;2022-12-29T09:53:31;9.20;99.90
32694;DHT22;19084;44.716;10.218;2022-12-29T09:56:10;9.20;99.90
32694;DHT22;19084;44.716;10.218;2022-12-29T09:58:50;9.20;99.90
32694;DHT22;19084;44.716;10.218;2022-12-29T10:01:26;9.20;99.90
32694;DHT22;19084;44.716;10.218;2022-12-29T10:04:01;9.20;99.90
32694;DHT22;19084;44.716;10.218;2022-12-29T10:14:41;9.30;99.90
32694;DHT22;19084;44.716;10.218;2022-12-29T10:20:00;9.30;99.90
32694;DHT22;19084;44.716;10.218;2022-12-29T10:25:12;9.30;99.90
32694;DHT22;19084;44.716;10.218;2022-12-29T10:27:47;9.30;99.90
32694;DHT22;19084;44.716;10.218;2022-12-29T10:30:20;9.30;99.90
32694;DHT22;19084;44.716;10.218;2022-12-29T10:32:54;9.40;99.90
32694;DHT22;19084;44.716;10.218;2022-12-29T10:35:32;9.40;99.90
32694;DHT22;19084;44.716;10.218;2022-12-29T10:40:51;9.50;99.90
32694;DHT22;19084;44.716;10.218;2022-12-29T10:43:28;9.50;99.90
32694;DHT22;19084;44.716;10.218;2022-12-29T10:46:04;9.50;99.90
32694;DHT22;19084;44.716;10.218;2022-12-29T10:48:37;9.60;99.90
32694;DHT22;19084;44.716;10.218;2022-12-29T10:51:10;9.60;99.90
32694;DHT22;19084;44.716;10.218;2022-12-29T10:53:52;9.50;99.90
32694;DHT22;19084;44.716;10.218;2022-12-29T10:59:10;9.50;99.90
32694;DHT22;19084;44.716;10.218;2022-12-29T11:01:50;9.50;99.90
32694;DHT22;19084;44.716;10.218;2022-12-29T11:07:16;9.50;99.90
32694;DHT22;19084;44.716;10.218;2022-12-29T11:10:15;9.50;99.90
32694;DHT22;19084;44.716;10.218;2022-12-29T11:12:54;9.50;99.90
32694;DHT22;19084;44.716;10.218;2022-12-29T11:15:27;9.50;99.90
32694;DHT22;19084;44.716;10.218;2022-12-29T11:21:00;9.50;99.90
32694;DHT22;19084;44.716;10.218;2022-12-29T11:23:34;9.50;99.90
32694;DHT22;19084;44.716;10.218;2022-12-29T11:28:41;9.50;99.90
32694;DHT22;19084;44.716;10.218;2022-12-29T11:31:15;9.50;99.90
32694;DHT22;19084;44.716;10.218;2022-12-29T11:33:49;9.60;99.90
32694;DHT22;19084;44.716;10.218;2022-12-29T11:36:22;9.60;99.90
32694;DHT22;19084;44.716;10.218;2022-12-29T11:38:56;9.70;99.90
32694;DHT22;19084;44.716;10.218;2022-12-29T11:41:29;9.70;99.90
32694;DHT22;19084;44.716;10.218;2022-12-29T11:44:02;9.70;99.90
32694;DHT22;19084;44.716;10.218;2022-12-29T11:46:37;9.70;99.90
32694;DHT22;19084;44.716;10.218;2022-12-29T11:49:12;9.70;99.90
32694;DHT22;19084;44.716;10.218;2022-12-29T11:51:47;9.70;99.90
32694;DHT22;19084;44.716;10.218;2022-12-29T11:54:22;9.70;99.90
32694;DHT22;19084;44.716;10.218;2022-12-29T11:56:57;9.80;99.90
32694;DHT22;19084;44.716;10.218;2022-12-29T12:02:15;9.80;99.90
32694;DHT22;19084;44.716;10.218;2022-12-29T12:07:42;9.80;99.90
32694;DHT22;19084;44.716;10.218;2022-12-29T12:10:20;9.70;99.90
32694;DHT22;19084;44.716;10.218;2022-12-29T12:12:56;9.70;99.90
32694;DHT22;19084;44.716;10.218;2022-12-29T12:15:40;9.70;99.90
32694;DHT22;19084;44.716;10.218;2022-12-29T12:26:33;9.60;99.90
32694;DHT22;19084;44.716;10.218;2022-12-29T12:29:12;9.50;99.90
32694;DHT22;19084;44.716;10.218;2022-12-29T12:31:49;9.60;99.90
32694;DHT22;19084;44.716;10.218;2022-12-29T12:34:29;9.50;99.90
32694;DHT22;19084;44.716;10.218;2022-12-29T12:58:55;9.40;99.90
32694;DHT22;19084;44.716;10.218;2022-12-29T13:04:26;9.40;99.90
32694;DHT22;19084;44.716;10.218;2022-12-29T13:07:10;9.40;99.90
32694;DHT22;19084;44.716;10.218;2022-12-29T13:12:41;9.40;99.90
32694;DHT22;19084;44.716;10.218;2022-12-29T13:23:17;9.40;99.90
32694;DHT22;19084;44.716;10.218;2022-12-29T13:25:58;9.50;99.90
32694;DHT22;19084;44.716;10.218;2022-12-29T13:31:14;9.50;99.90
32694;DHT22;19084;44.716;10.218;2022-12-29T13:33:51;9.40;99.90
32694;DHT22;19084;44.716;10.218;2022-12-29T13:36:33;9.50;99.90
32694;DHT22;19084;44.716;10.218;2022-12-29T13:41:54;9.40;99.90
32694;DHT22;19084;44.716;10.218;2022-12-29T13:44:34;9.40;99.90
32694;DHT22;19084;44.716;10.218;2022-12-29T13:47:15;9.40;99.90
32694;DHT22;19084;44.716;10.218;2022-12-29T13:49:54;9.40;99.90
32694;DHT22;19084;44.716;10.218;2022-12-29T13:52:37;9.30;99.90
32694;DHT22;19084;44.716;10.218;2022-12-29T14:00:20;9.30;99.90
32694;DHT22;19084;44.716;10.218;2022-12-29T14:03:04;9.30;99.90
32694;DHT22;19084;44.716;10.218;2022-12-29T14:05:44;9.30;99.90
32694;DHT22;19084;44.716;10.218;2022-12-29T14:08:19;9.30;99.90
32694;DHT22;19084;44.716;10.218;2022-12-29T14:10:52;9.40;99.90
32694;DHT22;19084;44.716;10.218;2022-12-29T14:13:27;9.40;99.90
32694;DHT22;19084;44.716;10.218;2022-12-29T14:15:59;9.40;99.90
32694;DHT22;19084;44.716;10.218;2022-12-29T14:18:34;9.40;99.90
32694;DHT22;19084;44.716;10.218;2022-12-29T14:23:47;9.30;99.90
32694;DHT22;19084;44.716;10.218;2022-12-29T14:29:15;9.30;99.90
32694;DHT22;19084;44.716;10.218;2022-12-29T14:31:49;9.40;99.90
32694;DHT22;19084;44.716;10.218;2022-12-29T14:36:58;9.40;99.90
32694;DHT22;19084;44.716;10.218;2022-12-29T14:39:36;9.40;99.90
32694;DHT22;19084;44.716;10.218;2022-12-29T14:47:27;9.40;99.90
32694;DHT22;19084;44.716;10.218;2022-12-29T14:50:08;9.40;99.90
32694;DHT22;19084;44.716;10.218;2022-12-29T14:57:50;9.40;99.90
32694;DHT22;19084;44.716;10.218;2022-12-29T15:00:24;9.40;99.90
32694;DHT22;19084;44.716;10.218;2022-12-29T15:03:03;9.40;99.90
32694;DHT22;19084;44.716;10.218;2022-12-29T15:05:53;9.40;99.90
32694;DHT22;19084;44.716;10.218;2022-12-29T15:08:26;9.40;99.90
32694;DHT22;19084;44.716;10.218;2022-12-29T15:11:01;9.40;99.90
32694;DHT22;19084;44.716;10.218;2022-12-29T15:13:35;9.40;99.90
32694;DHT22;19084;44.716;10.218;2022-12-29T15:18:56;9.40;99.90
32694;DHT22;19084;44.716;10.218;2022-12-29T15:21:31;9.40;99.90
32694;DHT22;19084;44.716;10.218;2022-12-29T15:24:03;9.40;99.90
32694;DHT22;19084;44.716;10.218;2022-12-29T15:26:37;9.40;99.90
32694;DHT22;19084;44.716;10.218;2022-12-29T15:32:02;9.30;99.90
32694;DHT22;19084;44.716;10.218;2022-12-29T15:34:43;9.40;99.90
32694;DHT22;19084;44.716;10.218;2022-12-29T15:37:18;9.30;99.90
32694;DHT22;19084;44.716;10.218;2022-12-29T15:39:51;9.30;99.90
32694;DHT22;19084;44.716;10.218;2022-12-29T15:42:27;9.30;99.90
32694;DHT22;19084;44.716;10.218;2022-12-29T15:45:03;9.30;99.90
32694;DHT22;19084;44.716;10.218;2022-12-29T15:47:43;9.30;99.90
32694;DHT22;19084;44.716;10.218;2022-12-29T15:52:52;9.30;99.90
32694;DHT22;19084;44.716;10.218;2022-12-29T15:55:26;9.30;99.90
32694;DHT22;19084;44.716;10.218;2022-12-29T15:58:01;9.30;99.90
32694;DHT22;19084;44.716;10.218;2022-12-29T16:00:35;9.30;99.90
32694;DHT22;19084;44.716;10.218;2022-12-29T16:03:11;9.20;99.90
32694;DHT22;19084;44.716;10.218;2022-12-29T16:05:53;9.20;99.90
32694;DHT22;19084;44.716;10.218;2022-12-29T16:08:29;9.20;99.90
32694;DHT22;19084;44.716;10.218;2022-12-29T16:11:15;9.20;99.90
32694;DHT22;19084;44.716;10.218;2022-12-29T16:13:50;9.20;99.90
32694;DHT22;19084;44.716;10.218;2022-12-29T16:16:26;9.20;99.90
32694;DHT22;19084;44.716;10.218;2022-12-29T16:19:01;9.20;99.90
32694;DHT22;19084;44.716;10.218;2022-12-29T16:21:35;9.10;99.90
32694;DHT22;19084;44.716;10.218;2022-12-29T16:24:12;9.20;99.90
32694;DHT22;19084;44.716;10.218;2022-12-29T16:26:50;9.20;99.90
32694;DHT22;19084;44.716;10.218;2022-12-29T16:29:23;10.70;99.90
32694;DHT22;19084;44.716;10.218;2022-12-29T16:31:57;9.10;99.90
32694;DHT22;19084;44.716;10.218;2022-12-29T16:42:47;9.10;99.90
32694;DHT22;19084;44.716;10.218;2022-12-29T16:45:38;9.10;99.90
32694;DHT22;19084;44.716;10.218;2022-12-29T16:48:17;9.10;99.90
32694;DHT22;19084;44.716;10.218;2022-12-29T16:50:51;9.20;99.90
32694;DHT22;19084;44.716;10.218;2022-12-29T16:53:26;9.20;99.90
32694;DHT22;19084;44.716;10.218;2022-12-29T16:56:01;9.20;99.90
32694;DHT22;19084;44.716;10.218;2022-12-29T16:58:36;9.20;99.90
32694;DHT22;19084;44.716;10.218;2022-12-29T17:01:10;9.20;99.90
32694;DHT22;19084;44.716;10.218;2022-12-29T17:03:48;10.60;99.90
32694;DHT22;19084;44.716;10.218;2022-12-29T17:06:21;9.20;99.90
32694;DHT22;19084;44.716;10.218;2022-12-29T17:08:55;9.10;99.90
32694;DHT22;19084;44.716;10.218;2022-12-29T17:11:30;9.10;99.90
32694;DHT22;19084;44.716;10.218;2022-12-29T17:14:40;9.20;99.90
32694;DHT22;19084;44.716;10.218;2022-12-29T17:17:15;9.10;99.90
32694;DHT22;19084;44.716;10.218;2022-12-29T17:19:50;9.10;99.90
32694;DHT22;19084;44.716;10.218;2022-12-29T17:22:24;9.10;99.90
32694;DHT22;19084;44.716;10.218;2022-12-29T17:24:57;9.10;99.90
32694;DHT22;19084;44.716;10.218;2022-12-29T17:27:33;9.10;99.90
32694;DHT22;19084;44.716;10.218;2022-12-29T17:30:15;9.10;99.90
32694;DHT22;19084;44.716;10.218;2022-12-29T17:32:51;9.10;99.90
32694;DHT22;19084;44.716;10.218;2022-12-29T17:35:23;9.10;99.90
32694;DHT22;19084;44.716;10.218;2022-12-29T17:37:55;9.10;99.90
32694;DHT22;19084;44.716;10.218;2022-12-29T17:40:29;9.10;99.90
32694;DHT22;19084;44.716;10.218;2022-12-29T17:43:03;9.10;99.90
32694;DHT22;19084;44.716;10.218;2022-12-29T17:45:35;9.10;99.90
32694;DHT22;19084;44.716;10.218;2022-12-29T17:48:11;9.10;99.90
32694;DHT22;19084;44.716;10.218;2022-12-29T17:50:45;9.10;99.90
32694;DHT22;19084;44.716;10.218;2022-12-29T17:53:20;9.10;99.90
32694;DHT22;19084;44.716;10.218;2022-12-29T17:55:53;9.10;99.90
32694;DHT22;19084;44.716;10.218;2022-12-29T17:58:26;9.10;99.90
32694;DHT22;19084;44.716;10.218;2022-12-29T18:01:00;9.20;99.90
32694;DHT22;19084;44.716;10.218;2022-12-29T18:03:36;9.20;99.90
32694;DHT22;19084;44.716;10.218;2022-12-29T18:06:09;9.10;99.90
32694;DHT22;19084;44.716;10.218;2022-12-29T18:08:42;9.10;99.90
32694;DHT22;19084;44.716;10.218;2022-12-29T18:11:23;9.10;99.90
32694;DHT22;19084;44.716;10.218;2022-12-29T18:13:58;9.10;99.90
32694;DHT22;19084;44.716;10.218;2022-12-29T18:16:31;9.10;99.90
32694;DHT22;19084;44.716;10.218;2022-12-29T18:19:03;9.10;99.90
32694;DHT22;19084;44.716;10.218;2022-12-29T18:21:35;9.10;99.90
32694;DHT22;19084;44.716;10.218;2022-12-29T18:24:12;9.10;99.90
32694;DHT22;19084;44.716;10.218;2022-12-29T18:26:45;9.10;99.90
32694;DHT22;19084;44.716;10.218;2022-12-29T18:29:17;9.10;99.90
32694;DHT22;19084;44.716;10.218;2022-12-29T18:31:50;9.10;99.90
32694;DHT22;19084;44.716;10.218;2022-12-29T18:34:23;9.10;99.90
32694;DHT22;19084;44.716;10.218;2022-12-29T18:36:55;9.00;99.90
32694;DHT22;19084;44.716;10.218;2022-12-29T18:39:30;9.10;99.90
32694;DHT22;19084;44.716;10.218;2022-12-29T18:42:03;9.10;99.90
32694;DHT22;19084;44.716;10.218;2022-12-29T18:44:35;9.10;99.90
32694;DHT22;19084;44.716;10.218;2022-12-29T18:47:08;9.10;99.90
32694;DHT22;19084;44.716;10.218;2022-12-29T18:49:40;9.10;99.90
32694;DHT22;19084;44.716;10.218;2022-12-29T18:52:13;9.10;99.90
32694;DHT22;19084;44.716;10.218;2022-12-29T18:54:46;9.00;99.90
32694;DHT22;19084;44.716;10.218;2022-12-29T18:57:18;9.00;99.90
32694;DHT22;19084;44.716;10.218;2022-12-29T18:59:51;9.00;99.90
32694;DHT22;19084;44.716;10.218;2022-12-29T19:02:24;9.00;99.90
32694;DHT22;19084;44.716;10.218;2022-12-29T19:04:58;9.00;99.90
32694;DHT22;19084;44.716;10.218;2022-12-29T19:07:38;9.10;99.90